sensor_id;sensor_type;location;lat;lon;timestamp;pressure;altitude;pressure_sealevel;temperature;humidity
9740;BME280;4909;42.680;26.324;2023-01-28T00:00:32;97737.03;;;4.95;75.79
9740;BME280;4909;42.680;26.324;2023-01-28T00:02:59;97758.38;;;4.88;77.07
9740;BME280;4909;42.680;26.324;2023-01-28T00:05:26;97759.81;;;4.71;77.15
9740;BME280;4909;42.680;26.324;2023-01-28T00:07:54;97744.50;;;4.33;77.23
9740;BME280;4909;42.680;26.324;2023-01-28T00:10:21;97758.41;;;4.61;78.30
9740;BME280;4909;42.680;26.324;2023-01-28T00:12:49;97765.44;;;4.61;77.14
9740;BME280;4909;42.680;26.324;2023-01-28T00:15:16;97772.31;;;4.40;76.72
9740;BME280;4909;42.680;26.324;2023-01-28T00:17:43;97768.97;;;4.35;77.03
9740;BME280;4909;42.680;26.324;2023-01-28T00:20:10;97769.31;;;4.24;78.03
9740;BME280;4909;42.680;26.324;2023-01-28T00:22:37;97778.47;;;4.39;78.01
9740;BME280;4909;42.680;26.324;2023-01-28T00:25:04;97780.88;;;4.45;78.36
9740;BME280;4909;42.680;26.324;2023-01-28T00:27:31;97782.84;;;4.38;77.61
9740;BME280;4909;42.680;26.324;2023-01-28T00:29:59;97786.22;;;4.42;76.88
9740;BME280;4909;42.680;26.324;2023-01-28T00:32:26;97785.63;;;4.34;77.22
9740;BME280;4909;42.680;26.324;2023-01-28T00:34:53;97794.53;;;4.30;77.62
9740;BME280;4909;42.680;26.324;2023-01-28T00:37:20;97797.47;;;4.21;77.04
9740;BME280;4909;42.680;26.324;2023-01-28T00:39:47;97804.50;;;4.19;78.17
9740;BME280;4909;42.680;26.324;2023-01-28T00:42:13;97791.41;;;4.17;78.98
9740;BME280;4909;42.680;26.324;2023-01-28T00:44:40;97810.94;;;4.10;77.51
9740;BME280;4909;42.680;26.324;2023-01-28T00:47:09;97779.03;;;3.94;78.57
9740;BME280;4909;42.680;26.324;2023-01-28T00:49:35;97823.88;;;4.16;78.69
9740;BME280;4909;42.680;26.324;2023-01-28T00:52:02;97822.34;;;4.09;78.29
9740;BME280;4909;42.680;26.324;2023-01-28T00:54:29;97764.66;;;3.78;78.42
9740;BME280;4909;42.680;26.324;2023-01-28T00:56:56;97822.47;;;4.05;77.60
9740;BME280;4909;42.680;26.324;2023-01-28T00:59:25;97801.50;;;4.03;78.63
9740;BME280;4909;42.680;26.324;2023-01-28T01:01:53;97782.78;;;4.14;77.97
9740;BME280;4909;42.680;26.324;2023-01-28T01:04:38;97812.34;;;4.20;78.34
9740;BME280;4909;42.680;26.324;2023-01-28T01:07:05;97821.84;;;4.24;79.09
9740;BME280;4909;42.680;26.324;2023-01-28T01:09:32;97814.19;;;4.17;78.26
9740;BME280;4909;42.680;26.324;2023-01-28T01:11:59;97817.69;;;4.17;77.31
9740;BME280;4909;42.680;26.324;2023-01-28T01:14:25;97818.81;;;4.10;79.08
9740;BME280;4909;42.680;26.324;2023-01-28T01:16:52;97821.88;;;3.97;78.53
9740;BME280;4909;42.680;26.324;2023-01-28T01:19:19;97814.19;;;3.90;79.04
9740;BME280;4909;42.680;26.324;2023-01-28T01:21:47;97821.09;;;3.93;79.65
9740;BME280;4909;42.680;26.324;2023-01-28T01:24:15;97815.84;;;3.93;79.90
9740;BME280;4909;42.680;26.324;2023-01-28T01:26:41;97813.75;;;4.04;79.53
9740;BME280;4909;42.680;26.324;2023-01-28T01:29:08;97811.06;;;4.06;79.28
9740;BME280;4909;42.680;26.324;2023-01-28T01:31:35;97822.22;;;4.12;79.76
9740;BME280;4909;42.680;26.324;2023-01-28T01:34:02;97813.41;;;4.15;78.99
9740;BME280;4909;42.680;26.324;2023-01-28T01:36:28;97822.94;;;4.17;79.13
9740;BME280;4909;42.680;26.324;2023-01-28T01:38:57;97824.63;;;4.20;79.12
9740;BME280;4909;42.680;26.324;2023-01-28T01:41:27;97826.38;;;4.19;78.72
9740;BME280;4909;42.680;26.324;2023-01-28T01:43:57;97806.72;;;4.05;79.62
9740;BME280;4909;42.680;26.324;2023-01-28T01:46:29;97823.31;;;4.33;79.29
9740;BME280;4909;42.680;26.324;2023-01-28T01:49:04;97827.31;;;4.17;79.77
9740;BME280;4909;42.680;26.324;2023-01-28T01:51:33;97819.13;;;4.00;79.73
9740;BME280;4909;42.680;26.324;2023-01-28T01:54:03;97832.22;;;4.01;80.13
9740;BME280;4909;42.680;26.324;2023-01-28T01:56:33;97787.25;;;3.84;80.12
9740;BME280;4909;42.680;26.324;2023-01-28T01:59:01;97837.25;;;4.07;78.78
9740;BME280;4909;42.680;26.324;2023-01-28T02:01:30;97836.00;;;4.20;80.18
9740;BME280;4909;42.680;26.324;2023-01-28T02:04:02;97804.44;;;3.94;79.55
9740;BME280;4909;42.680;26.324;2023-01-28T02:06:30;97834.31;;;4.18;79.96
9740;BME280;4909;42.680;26.324;2023-01-28T02:08:57;97833.72;;;4.08;78.87
9740;BME280;4909;42.680;26.324;2023-01-28T02:11:29;97835.00;;;3.97;79.52
9740;BME280;4909;42.680;26.324;2023-01-28T02:13:59;97840.97;;;4.02;80.30
9740;BME280;4909;42.680;26.324;2023-01-28T02:16:27;97847.78;;;3.78;79.65
9740;BME280;4909;42.680;26.324;2023-01-28T02:18:54;97836.63;;;3.71;79.97
9740;BME280;4909;42.680;26.324;2023-01-28T02:21:42;97834.63;;;3.79;81.01
9740;BME280;4909;42.680;26.324;2023-01-28T02:27:21;97841.59;;;3.80;80.07
9740;BME280;4909;42.680;26.324;2023-01-28T02:29:54;97846.28;;;3.71;79.31
9740;BME280;4909;42.680;26.324;2023-01-28T02:32:26;97835.78;;;3.71;80.37
9740;BME280;4909;42.680;26.324;2023-01-28T02:34:59;97848.13;;;3.67;79.68
9740;BME280;4909;42.680;26.324;2023-01-28T02:37:33;97840.41;;;3.63;80.53
9740;BME280;4909;42.680;26.324;2023-01-28T02:40:08;97846.13;;;3.75;79.92
9740;BME280;4909;42.680;26.324;2023-01-28T02:42:36;97846.31;;;3.69;79.71
9740;BME280;4909;42.680;26.324;2023-01-28T02:45:14;97854.16;;;3.71;80.39
9740;BME280;4909;42.680;26.324;2023-01-28T02:47:41;97849.38;;;3.83;79.72
9740;BME280;4909;42.680;26.324;2023-01-28T02:50:24;97859.34;;;3.72;79.84
9740;BME280;4909;42.680;26.324;2023-01-28T02:53:01;97863.81;;;3.69;79.25
9740;BME280;4909;42.680;26.324;2023-01-28T02:55:54;97849.75;;;3.71;80.09
9740;BME280;4909;42.680;26.324;2023-01-28T02:58:33;97821.44;;;3.53;79.50
9740;BME280;4909;42.680;26.324;2023-01-28T03:01:08;97829.31;;;3.53;79.87
9740;BME280;4909;42.680;26.324;2023-01-28T03:03:43;97840.16;;;3.70;80.21
9740;BME280;4909;42.680;26.324;2023-01-28T03:06:17;97840.41;;;3.63;79.89
9740;BME280;4909;42.680;26.324;2023-01-28T03:08:49;97851.09;;;3.55;79.52
9740;BME280;4909;42.680;26.324;2023-01-28T03:11:39;97838.94;;;3.53;80.09
9740;BME280;4909;42.680;26.324;2023-01-28T03:14:24;97860.88;;;3.50;80.57
9740;BME280;4909;42.680;26.324;2023-01-28T03:17:15;97857.31;;;3.53;79.56
9740;BME280;4909;42.680;26.324;2023-01-28T03:20:02;97859.97;;;3.51;79.95
9740;BME280;4909;42.680;26.324;2023-01-28T03:22:50;97850.16;;;3.58;80.18
9740;BME280;4909;42.680;26.324;2023-01-28T03:25:39;97851.94;;;3.57;79.92
9740;BME280;4909;42.680;26.324;2023-01-28T03:28:27;97852.44;;;3.68;80.37
9740;BME280;4909;42.680;26.324;2023-01-28T03:31:13;97845.72;;;3.60;80.31
9740;BME280;4909;42.680;26.324;2023-01-28T03:34:01;97852.94;;;3.53;79.70
9740;BME280;4909;42.680;26.324;2023-01-28T03:36:46;97846.00;;;3.50;80.28
9740;BME280;4909;42.680;26.324;2023-01-28T03:39:19;97838.25;;;3.46;80.15
9740;BME280;4909;42.680;26.324;2023-01-28T03:41:58;97861.31;;;3.64;81.01
9740;BME280;4909;42.680;26.324;2023-01-28T03:44:26;97874.88;;;3.49;80.49
9740;BME280;4909;42.680;26.324;2023-01-28T03:47:10;97858.97;;;3.55;80.55
9740;BME280;4909;42.680;26.324;2023-01-28T03:49:40;97852.06;;;3.53;79.99
9740;BME280;4909;42.680;26.324;2023-01-28T03:52:07;97857.38;;;3.49;80.06
9740;BME280;4909;42.680;26.324;2023-01-28T03:54:34;97833.91;;;3.45;80.21
9740;BME280;4909;42.680;26.324;2023-01-28T03:57:01;97866.25;;;3.75;80.19
9740;BME280;4909;42.680;26.324;2023-01-28T03:59:28;97839.94;;;3.48;79.99
9740;BME280;4909;42.680;26.324;2023-01-28T04:01:54;97858.06;;;3.56;80.02
9740;BME280;4909;42.680;26.324;2023-01-28T04:04:21;97870.44;;;3.53;79.54
9740;BME280;4909;42.680;26.324;2023-01-28T04:06:53;97897.56;;;3.52;80.50
9740;BME280;4909;42.680;26.324;2023-01-28T04:09:20;97902.03;;;3.48;79.98
9740;BME280;4909;42.680;26.324;2023-01-28T04:11:47;97899.47;;;3.45;80.61
9740;BME280;4909;42.680;26.324;2023-01-28T04:14:15;97908.94;;;3.50;80.30
9740;BME280;4909;42.680;26.324;2023-01-28T04:16:41;97912.53;;;3.48;80.44
9740;BME280;4909;42.680;26.324;2023-01-28T04:19:08;97893.16;;;3.21;80.19
9740;BME280;4909;42.680;26.324;2023-01-28T04:21:36;97905.75;;;3.39;80.54
9740;BME280;4909;42.680;26.324;2023-01-28T04:24:05;97915.09;;;3.49;80.64
9740;BME280;4909;42.680;26.324;2023-01-28T04:26:32;97915.78;;;3.56;79.94
9740;BME280;4909;42.680;26.324;2023-01-28T04:28:59;97920.06;;;3.59;80.30
9740;BME280;4909;42.680;26.324;2023-01-28T04:31:26;97920.94;;;3.59;81.07
9740;BME280;4909;42.680;26.324;2023-01-28T04:33:52;97924.56;;;3.55;80.14
9740;BME280;4909;42.680;26.324;2023-01-28T04:36:19;97929.31;;;3.42;79.52
9740;BME280;4909;42.680;26.324;2023-01-28T04:38:46;97943.31;;;3.41;79.72
9740;BME280;4909;42.680;26.324;2023-01-28T04:41:14;97931.31;;;3.33;80.32
9740;BME280;4909;42.680;26.324;2023-01-28T04:43:41;97944.56;;;3.28;80.16
9740;BME280;4909;42.680;26.324;2023-01-28T04:46:09;97925.22;;;3.31;81.06
9740;BME280;4909;42.680;26.324;2023-01-28T04:48:35;97941.84;;;3.31;80.35
9740;BME280;4909;42.680;26.324;2023-01-28T04:51:03;97927.94;;;3.28;80.78
9740;BME280;4909;42.680;26.324;2023-01-28T04:53:30;97947.28;;;3.24;80.36
9740;BME280;4909;42.680;26.324;2023-01-28T04:55:57;97948.94;;;3.28;80.70
9740;BME280;4909;42.680;26.324;2023-01-28T04:58:25;97953.56;;;3.18;80.11
9740;BME280;4909;42.680;26.324;2023-01-28T05:00:54;97964.28;;;3.09;80.43
9740;BME280;4909;42.680;26.324;2023-01-28T05:03:21;97956.47;;;3.06;80.48
9740;BME280;4909;42.680;26.324;2023-01-28T05:05:48;97954.59;;;3.11;80.58
9740;BME280;4909;42.680;26.324;2023-01-28T05:08:16;97968.66;;;3.09;80.63
9740;BME280;4909;42.680;26.324;2023-01-28T05:10:43;97973.94;;;3.07;80.30
9740;BME280;4909;42.680;26.324;2023-01-28T05:13:10;97982.00;;;2.99;81.01
9740;BME280;4909;42.680;26.324;2023-01-28T05:15:38;97974.19;;;2.96;81.63
9740;BME280;4909;42.680;26.324;2023-01-28T05:18:05;97964.53;;;2.98;81.17
9740;BME280;4909;42.680;26.324;2023-01-28T05:20:31;97963.44;;;3.07;81.11
9740;BME280;4909;42.680;26.324;2023-01-28T05:22:58;97986.25;;;3.03;80.42
9740;BME280;4909;42.680;26.324;2023-01-28T05:25:25;97974.72;;;3.11;81.13
9740;BME280;4909;42.680;26.324;2023-01-28T05:27:53;97979.22;;;3.05;80.63
9740;BME280;4909;42.680;26.324;2023-01-28T05:30:20;97989.00;;;2.99;80.35
9740;BME280;4909;42.680;26.324;2023-01-28T05:32:53;97972.25;;;3.04;81.29
9740;BME280;4909;42.680;26.324;2023-01-28T05:35:20;97993.75;;;3.19;80.70
9740;BME280;4909;42.680;26.324;2023-01-28T05:37:46;97990.41;;;3.12;80.81
9740;BME280;4909;42.680;26.324;2023-01-28T05:40:13;97986.88;;;3.15;80.69
9740;BME280;4909;42.680;26.324;2023-01-28T05:42:40;97981.41;;;3.22;80.56
9740;BME280;4909;42.680;26.324;2023-01-28T05:45:08;98010.97;;;3.29;80.08
9740;BME280;4909;42.680;26.324;2023-01-28T05:47:35;98016.22;;;3.29;81.24
9740;BME280;4909;42.680;26.324;2023-01-28T05:50:04;98016.22;;;3.29;80.75
9740;BME280;4909;42.680;26.324;2023-01-28T05:52:31;98021.03;;;3.44;80.19
9740;BME280;4909;42.680;26.324;2023-01-28T05:54:58;98022.78;;;3.45;80.79
9740;BME280;4909;42.680;26.324;2023-01-28T05:57:25;98031.53;;;3.44;80.27
9740;BME280;4909;42.680;26.324;2023-01-28T05:59:52;98032.06;;;3.58;80.72
9740;BME280;4909;42.680;26.324;2023-01-28T06:02:19;98039.84;;;3.61;79.99
9740;BME280;4909;42.680;26.324;2023-01-28T06:04:46;98037.94;;;3.68;79.91
9740;BME280;4909;42.680;26.324;2023-01-28T06:07:14;98058.00;;;3.69;80.07
9740;BME280;4909;42.680;26.324;2023-01-28T06:09:44;98059.44;;;3.80;80.13
9740;BME280;4909;42.680;26.324;2023-01-28T06:12:11;98065.69;;;3.76;80.02
9740;BME280;4909;42.680;26.324;2023-01-28T06:14:38;98052.06;;;3.62;80.38
9740;BME280;4909;42.680;26.324;2023-01-28T06:17:05;98039.81;;;3.63;80.69
9740;BME280;4909;42.680;26.324;2023-01-28T06:19:32;98060.38;;;3.78;80.65
9740;BME280;4909;42.680;26.324;2023-01-28T06:21:59;98064.16;;;3.68;80.25
9740;BME280;4909;42.680;26.324;2023-01-28T06:24:27;98020.88;;;3.50;80.39
9740;BME280;4909;42.680;26.324;2023-01-28T06:26:54;98076.31;;;3.72;80.47
9740;BME280;4909;42.680;26.324;2023-01-28T06:29:20;98068.63;;;3.64;80.41
9740;BME280;4909;42.680;26.324;2023-01-28T06:31:47;98072.03;;;3.68;80.90
9740;BME280;4909;42.680;26.324;2023-01-28T06:34:15;98065.81;;;3.72;81.28
9740;BME280;4909;42.680;26.324;2023-01-28T06:36:42;98056.81;;;3.80;81.54
9740;BME280;4909;42.680;26.324;2023-01-28T06:39:09;98069.94;;;3.80;81.15
9740;BME280;4909;42.680;26.324;2023-01-28T06:41:37;98078.47;;;3.88;80.30
9740;BME280;4909;42.680;26.324;2023-01-28T06:44:04;98082.13;;;3.83;81.30
9740;BME280;4909;42.680;26.324;2023-01-28T06:46:31;98079.94;;;3.66;81.82
9740;BME280;4909;42.680;26.324;2023-01-28T06:48:59;98099.59;;;3.50;82.19
9740;BME280;4909;42.680;26.324;2023-01-28T06:51:26;98108.88;;;3.63;82.97
9740;BME280;4909;42.680;26.324;2023-01-28T06:53:53;98110.25;;;3.78;82.47
9740;BME280;4909;42.680;26.324;2023-01-28T06:56:20;98101.53;;;3.77;82.18
9740;BME280;4909;42.680;26.324;2023-01-28T06:58:48;98103.53;;;3.68;82.56
9740;BME280;4909;42.680;26.324;2023-01-28T07:01:15;98111.50;;;3.63;82.74
9740;BME280;4909;42.680;26.324;2023-01-28T07:03:42;98103.19;;;3.81;82.24
9740;BME280;4909;42.680;26.324;2023-01-28T07:06:09;98107.28;;;3.91;83.22
9740;BME280;4909;42.680;26.324;2023-01-28T07:08:36;98111.66;;;3.91;82.77
9740;BME280;4909;42.680;26.324;2023-01-28T07:11:04;98109.72;;;3.98;81.89
9740;BME280;4909;42.680;26.324;2023-01-28T07:13:31;98099.19;;;3.99;81.03
9740;BME280;4909;42.680;26.324;2023-01-28T07:15:59;98109.06;;;3.89;80.31
9740;BME280;4909;42.680;26.324;2023-01-28T07:18:26;98110.81;;;3.90;80.25
9740;BME280;4909;42.680;26.324;2023-01-28T07:20:53;98129.03;;;3.97;79.75
9740;BME280;4909;42.680;26.324;2023-01-28T07:23:20;98128.03;;;4.01;79.16
9740;BME280;4909;42.680;26.324;2023-01-28T07:25:47;98139.53;;;3.97;78.30
9740;BME280;4909;42.680;26.324;2023-01-28T07:28:14;98130.44;;;4.08;78.24
9740;BME280;4909;42.680;26.324;2023-01-28T07:30:46;98128.59;;;4.12;78.18
9740;BME280;4909;42.680;26.324;2023-01-28T07:33:15;98128.38;;;4.21;78.05
9740;BME280;4909;42.680;26.324;2023-01-28T07:35:42;98131.06;;;4.18;77.04
9740;BME280;4909;42.680;26.324;2023-01-28T07:38:08;98130.91;;;4.24;77.63
9740;BME280;4909;42.680;26.324;2023-01-28T07:40:35;98145.81;;;4.23;76.49
9740;BME280;4909;42.680;26.324;2023-01-28T07:43:02;98151.19;;;4.19;77.25
9740;BME280;4909;42.680;26.324;2023-01-28T07:45:31;98144.25;;;4.16;76.76
9740;BME280;4909;42.680;26.324;2023-01-28T07:47:59;98154.75;;;4.16;77.63
9740;BME280;4909;42.680;26.324;2023-01-28T07:50:29;98151.78;;;4.28;77.19
9740;BME280;4909;42.680;26.324;2023-01-28T07:52:57;98148.34;;;4.26;78.41
9740;BME280;4909;42.680;26.324;2023-01-28T07:55:24;98163.16;;;4.29;77.50
9740;BME280;4909;42.680;26.324;2023-01-28T07:57:53;98137.31;;;4.14;78.45
9740;BME280;4909;42.680;26.324;2023-01-28T08:00:21;98147.16;;;4.06;76.42
9740;BME280;4909;42.680;26.324;2023-01-28T08:02:49;98163.53;;;4.15;78.53
9740;BME280;4909;42.680;26.324;2023-01-28T08:05:17;98157.31;;;4.18;77.48
9740;BME280;4909;42.680;26.324;2023-01-28T08:07:46;98113.19;;;4.00;77.61
9740;BME280;4909;42.680;26.324;2023-01-28T08:10:14;98164.81;;;4.31;77.13
9740;BME280;4909;42.680;26.324;2023-01-28T08:12:50;98126.03;;;4.10;76.43
9740;BME280;4909;42.680;26.324;2023-01-28T08:15:17;98166.31;;;4.42;75.77
9740;BME280;4909;42.680;26.324;2023-01-28T08:17:44;98166.41;;;4.38;76.70
9740;BME280;4909;42.680;26.324;2023-01-28T08:20:11;98174.44;;;4.32;76.19
9740;BME280;4909;42.680;26.324;2023-01-28T08:22:38;98176.63;;;4.49;75.61
9740;BME280;4909;42.680;26.324;2023-01-28T08:25:07;98183.28;;;4.61;75.73
9740;BME280;4909;42.680;26.324;2023-01-28T08:27:35;98160.88;;;4.48;75.39
9740;BME280;4909;42.680;26.324;2023-01-28T08:30:03;98175.75;;;4.49;75.01
9740;BME280;4909;42.680;26.324;2023-01-28T08:32:30;98179.59;;;4.68;75.36
9740;BME280;4909;42.680;26.324;2023-01-28T08:34:57;98180.88;;;4.53;75.60
9740;BME280;4909;42.680;26.324;2023-01-28T08:37:24;98177.13;;;4.62;74.19
9740;BME280;4909;42.680;26.324;2023-01-28T08:39:50;98163.56;;;4.77;74.37
9740;BME280;4909;42.680;26.324;2023-01-28T08:42:19;98190.41;;;4.88;73.57
9740;BME280;4909;42.680;26.324;2023-01-28T08:44:46;98197.63;;;4.80;72.58
9740;BME280;4909;42.680;26.324;2023-01-28T08:47:13;98192.59;;;4.72;73.90
9740;BME280;4909;42.680;26.324;2023-01-28T08:49:40;98185.91;;;4.61;74.18
9740;BME280;4909;42.680;26.324;2023-01-28T08:52:07;98188.06;;;4.79;73.20
9740;BME280;4909;42.680;26.324;2023-01-28T08:54:33;98192.94;;;4.91;74.33
9740;BME280;4909;42.680;26.324;2023-01-28T08:57:01;98188.16;;;5.04;73.35
9740;BME280;4909;42.680;26.324;2023-01-28T08:59:29;98181.09;;;5.06;73.48
9740;BME280;4909;42.680;26.324;2023-01-28T09:01:56;98196.47;;;5.19;72.42
9740;BME280;4909;42.680;26.324;2023-01-28T09:04:23;98197.81;;;5.33;73.11
9740;BME280;4909;42.680;26.324;2023-01-28T09:06:49;98203.59;;;5.45;71.85
9740;BME280;4909;42.680;26.324;2023-01-28T09:09:17;98197.88;;;5.59;71.25
9740;BME280;4909;42.680;26.324;2023-01-28T09:11:44;98199.44;;;5.66;70.82
9740;BME280;4909;42.680;26.324;2023-01-28T09:14:11;98202.44;;;5.54;71.38
9740;BME280;4909;42.680;26.324;2023-01-28T09:16:45;98199.13;;;5.75;71.51
9740;BME280;4909;42.680;26.324;2023-01-28T09:19:12;98191.47;;;5.67;70.35
9740;BME280;4909;42.680;26.324;2023-01-28T09:21:39;98207.59;;;5.85;69.54
9740;BME280;4909;42.680;26.324;2023-01-28T09:24:09;98211.06;;;5.87;69.75
9740;BME280;4909;42.680;26.324;2023-01-28T09:26:37;98206.97;;;5.77;69.44
9740;BME280;4909;42.680;26.324;2023-01-28T09:29:04;98212.53;;;5.67;70.00
9740;BME280;4909;42.680;26.324;2023-01-28T09:31:34;98217.06;;;5.62;70.29
9740;BME280;4909;42.680;26.324;2023-01-28T09:34:02;98223.00;;;5.69;69.61
9740;BME280;4909;42.680;26.324;2023-01-28T09:36:29;98222.94;;;5.43;69.95
9740;BME280;4909;42.680;26.324;2023-01-28T09:38:57;98206.88;;;5.52;71.21
9740;BME280;4909;42.680;26.324;2023-01-28T09:41:31;98190.13;;;5.54;71.10
9740;BME280;4909;42.680;26.324;2023-01-28T09:44:05;98223.72;;;5.74;70.70
9740;BME280;4909;42.680;26.324;2023-01-28T09:46:39;98229.66;;;5.53;70.88
9740;BME280;4909;42.680;26.324;2023-01-28T09:49:16;98194.38;;;5.58;70.79
9740;BME280;4909;42.680;26.324;2023-01-28T09:51:48;98202.28;;;5.58;69.67
9740;BME280;4909;42.680;26.324;2023-01-28T09:54:23;98226.25;;;5.49;71.01
9740;BME280;4909;42.680;26.324;2023-01-28T09:56:57;98195.28;;;5.57;72.09
9740;BME280;4909;42.680;26.324;2023-01-28T09:59:32;98216.53;;;5.79;69.95
9740;BME280;4909;42.680;26.324;2023-01-28T10:02:03;98206.25;;;5.99;69.79
9740;BME280;4909;42.680;26.324;2023-01-28T10:04:49;98214.41;;;6.18;69.66
9740;BME280;4909;42.680;26.324;2023-01-28T10:07:29;98225.72;;;5.95;69.72
9740;BME280;4909;42.680;26.324;2023-01-28T10:10:01;98194.56;;;5.80;69.79
9740;BME280;4909;42.680;26.324;2023-01-28T10:12:44;98210.38;;;5.52;70.55
9740;BME280;4909;42.680;26.324;2023-01-28T10:15:29;98215.69;;;5.79;69.30
9740;BME280;4909;42.680;26.324;2023-01-28T10:18:04;98215.50;;;5.85;69.55
9740;BME280;4909;42.680;26.324;2023-01-28T10:20:37;98208.59;;;5.81;68.63
9740;BME280;4909;42.680;26.324;2023-01-28T10:23:12;98210.56;;;6.02;67.84
9740;BME280;4909;42.680;26.324;2023-01-28T10:25:42;98204.75;;;6.43;67.55
9740;BME280;4909;42.680;26.324;2023-01-28T10:28:18;98202.13;;;6.43;67.06
9740;BME280;4909;42.680;26.324;2023-01-28T10:30:46;98210.44;;;6.31;67.10
9740;BME280;4909;42.680;26.324;2023-01-28T10:33:17;98206.75;;;6.37;68.11
9740;BME280;4909;42.680;26.324;2023-01-28T10:35:47;98181.25;;;6.85;67.00
9740;BME280;4909;42.680;26.324;2023-01-28T10:38:18;98206.00;;;6.33;65.86
9740;BME280;4909;42.680;26.324;2023-01-28T10:40:46;98214.47;;;6.41;67.37
9740;BME280;4909;42.680;26.324;2023-01-28T10:43:14;98202.69;;;6.27;66.10
9740;BME280;4909;42.680;26.324;2023-01-28T10:45:50;98204.09;;;6.37;66.81
9740;BME280;4909;42.680;26.324;2023-01-28T10:48:22;98209.59;;;6.55;65.41
9740;BME280;4909;42.680;26.324;2023-01-28T10:50:52;98202.25;;;6.64;64.46
9740;BME280;4909;42.680;26.324;2023-01-28T10:53:33;98194.84;;;6.50;66.05
9740;BME280;4909;42.680;26.324;2023-01-28T10:56:02;98190.63;;;6.69;66.75
9740;BME280;4909;42.680;26.324;2023-01-28T10:58:33;98193.88;;;7.01;63.72
9740;BME280;4909;42.680;26.324;2023-01-28T11:01:05;98210.56;;;7.01;64.31
9740;BME280;4909;42.680;26.324;2023-01-28T11:03:32;98206.44;;;6.94;63.28
9740;BME280;4909;42.680;26.324;2023-01-28T11:06:02;98221.53;;;6.66;63.11
9740;BME280;4909;42.680;26.324;2023-01-28T11:08:29;98185.28;;;6.47;64.14
9740;BME280;4909;42.680;26.324;2023-01-28T11:10:57;98183.03;;;6.10;65.21
9740;BME280;4909;42.680;26.324;2023-01-28T11:13:26;98211.81;;;6.17;65.23
9740;BME280;4909;42.680;26.324;2023-01-28T11:15:58;98218.72;;;6.45;64.79
9740;BME280;4909;42.680;26.324;2023-01-28T11:18:29;98218.16;;;6.62;65.83
9740;BME280;4909;42.680;26.324;2023-01-28T11:20:58;98230.56;;;6.59;64.38
9740;BME280;4909;42.680;26.324;2023-01-28T11:23:29;98231.72;;;6.76;65.52
9740;BME280;4909;42.680;26.324;2023-01-28T11:26:00;98228.00;;;6.57;64.69
9740;BME280;4909;42.680;26.324;2023-01-28T11:28:28;98227.63;;;6.43;64.83
9740;BME280;4909;42.680;26.324;2023-01-28T11:30:57;98223.63;;;6.31;65.09
9740;BME280;4909;42.680;26.324;2023-01-28T11:33:34;98248.78;;;6.66;64.58
9740;BME280;4909;42.680;26.324;2023-01-28T11:36:11;98249.66;;;6.90;64.47
9740;BME280;4909;42.680;26.324;2023-01-28T11:38:52;98253.38;;;6.60;64.69
9740;BME280;4909;42.680;26.324;2023-01-28T11:41:25;98206.19;;;6.01;65.98
9740;BME280;4909;42.680;26.324;2023-01-28T11:43:53;98256.53;;;6.44;65.30
9740;BME280;4909;42.680;26.324;2023-01-28T11:46:41;98262.03;;;6.12;66.70
9740;BME280;4909;42.680;26.324;2023-01-28T11:49:18;98266.94;;;5.96;67.04
9740;BME280;4909;42.680;26.324;2023-01-28T11:51:55;98261.88;;;5.90;68.40
9740;BME280;4909;42.680;26.324;2023-01-28T11:54:38;98257.22;;;5.98;68.35
9740;BME280;4909;42.680;26.324;2023-01-28T11:57:19;98276.84;;;5.88;68.25
9740;BME280;4909;42.680;26.324;2023-01-28T12:00:08;98249.50;;;5.64;68.36
9740;BME280;4909;42.680;26.324;2023-01-28T12:02:52;98261.13;;;5.85;69.72
9740;BME280;4909;42.680;26.324;2023-01-28T12:05:41;98269.25;;;6.05;69.31
9740;BME280;4909;42.680;26.324;2023-01-28T12:08:19;98251.38;;;6.15;67.35
9740;BME280;4909;42.680;26.324;2023-01-28T12:11:03;98258.97;;;5.98;69.43
9740;BME280;4909;42.680;26.324;2023-01-28T12:13:45;98274.78;;;5.41;69.59
9740;BME280;4909;42.680;26.324;2023-01-28T12:16:42;98267.53;;;5.47;70.51
9740;BME280;4909;42.680;26.324;2023-01-28T12:19:20;98252.00;;;5.40;70.36
9740;BME280;4909;42.680;26.324;2023-01-28T12:22:03;98274.38;;;5.54;69.52
9740;BME280;4909;42.680;26.324;2023-01-28T12:24:46;98271.47;;;5.91;69.86
9740;BME280;4909;42.680;26.324;2023-01-28T12:27:29;98278.91;;;6.06;68.89
9740;BME280;4909;42.680;26.324;2023-01-28T12:30:05;98267.34;;;6.10;68.31
9740;BME280;4909;42.680;26.324;2023-01-28T12:32:46;98242.63;;;5.88;69.13
9740;BME280;4909;42.680;26.324;2023-01-28T12:35:44;98274.25;;;6.15;69.09
9740;BME280;4909;42.680;26.324;2023-01-28T12:38:24;98276.22;;;6.08;69.54
9740;BME280;4909;42.680;26.324;2023-01-28T12:40:58;98283.06;;;6.14;69.69
9740;BME280;4909;42.680;26.324;2023-01-28T12:43:43;98272.75;;;5.78;69.48
9740;BME280;4909;42.680;26.324;2023-01-28T12:46:17;98287.25;;;5.93;70.61
9740;BME280;4909;42.680;26.324;2023-01-28T12:48:51;98258.00;;;6.00;70.78
9740;BME280;4909;42.680;26.324;2023-01-28T12:51:25;98274.72;;;6.27;68.84
9740;BME280;4909;42.680;26.324;2023-01-28T12:53:57;98287.16;;;6.22;69.35
9740;BME280;4909;42.680;26.324;2023-01-28T12:56:30;98270.63;;;5.91;69.89
9740;BME280;4909;42.680;26.324;2023-01-28T12:59:02;98288.16;;;5.92;70.35
9740;BME280;4909;42.680;26.324;2023-01-28T13:01:38;98291.06;;;5.81;71.55
9740;BME280;4909;42.680;26.324;2023-01-28T13:04:12;98287.09;;;5.97;71.71
9740;BME280;4909;42.680;26.324;2023-01-28T13:06:47;98289.91;;;5.91;71.79
9740;BME280;4909;42.680;26.324;2023-01-28T13:09:19;98289.69;;;5.99;71.80
9740;BME280;4909;42.680;26.324;2023-01-28T13:11:48;98293.25;;;5.96;71.27
9740;BME280;4909;42.680;26.324;2023-01-28T13:14:17;98289.69;;;5.99;71.85
9740;BME280;4909;42.680;26.324;2023-01-28T13:16:46;98292.16;;;5.76;71.91
9740;BME280;4909;42.680;26.324;2023-01-28T13:19:23;98291.78;;;5.88;70.99
9740;BME280;4909;42.680;26.324;2023-01-28T13:21:52;98295.72;;;5.73;71.48
9740;BME280;4909;42.680;26.324;2023-01-28T13:24:22;98309.78;;;5.72;71.00
9740;BME280;4909;42.680;26.324;2023-01-28T13:26:57;98302.25;;;5.61;72.27
9740;BME280;4909;42.680;26.324;2023-01-28T13:29:30;98298.38;;;5.44;72.93
9740;BME280;4909;42.680;26.324;2023-01-28T13:31:59;98305.06;;;5.24;73.65
9740;BME280;4909;42.680;26.324;2023-01-28T13:34:32;98321.56;;;5.31;73.91
9740;BME280;4909;42.680;26.324;2023-01-28T13:37:03;98326.44;;;5.43;73.71
9740;BME280;4909;42.680;26.324;2023-01-28T13:39:33;98311.56;;;5.42;74.04
9740;BME280;4909;42.680;26.324;2023-01-28T13:42:21;98320.97;;;5.51;72.92
9740;BME280;4909;42.680;26.324;2023-01-28T13:44:49;98328.56;;;5.61;72.25